チャーチル の空港の天気 - METARとTAF

チャーチル空港 ( CYYQ / YYQ ) - カナダ マニトバ州Churchill
飛行場実況気象(Metar)
観測時間10/19 23:00 CDT (10/20 04:00 UTC)
風向・風速北西 7m/s
視程10km以上
天気現象弱い雨
全天の8割程度の雲 雲底高度 210m
全天を覆う雲 雲底高度 640m
気温3℃
湿度93%
気圧990.9hPa
METARCYYQ 200400Z 31013KT 15SM -RA BKN007 OVC021 03/02 A2925 RMK ST7SC1 SLP909
過去の天気等 Google飛行場航空写真 Wunderground天気予報

過去48時間のMETAR

飛行場予報(TAF)
発表時間: 10/19 18:38 CDT (10/19 23:38 UTC)
予報対象時間: 19日19時 CDT ~ 20日19時 CDT
風向・風速北 3m/s
視程8050m
天気現象弱い雨 もや
全天を覆う雲 雲底高度 90m
19日19時 CDT ~ 20日2時 CDT に一時的に
視程10km以上
天気現象弱い雨
全天を覆う雲 雲底高度 240m
19日22時 CDT ~ 19日24時 CDT に徐々に
風向・風速西北西 8m/s 瞬間風速 13m/s
20日2時 CDT から
風向・風速西 8m/s 瞬間風速 13m/s
視程10km以上
全天の4割程度の雲 雲底高度 150m
全天を覆う雲 雲底高度 460m
20日2時 CDT ~ 20日4時 CDT に一時的に
視程6440m
天気現象弱い霧雨 もや
全天を覆う雲 雲底高度 150m
20日7時 CDT から
風向・風速西 8m/s 瞬間風速 13m/s
視程10km以上
全天の8割程度の雲 雲底高度 460m
20日7時 CDT ~ 20日16時 CDT に一時的に
全天の8割程度の雲 雲底高度 760m
20日16時 CDT から
風向・風速西南西 8m/s 瞬間風速 13m/s
視程10km以上
全天の8割程度の雲 雲底高度 760m
TAF CYYQ 192338Z 2000/2024 01005KT 5SM -RA BR OVC003
TEMPO 2000/2007 P6SM -RA OVC008
BECMG 2003/2005 30015G25KT
FM200700 28015G25KT P6SM SCT005 OVC015
TEMPO 2007/2009 4SM -DZ BR OVC005
FM201200 28015G25KT P6SM BKN015
TEMPO 2012/2021 BKN025
FM202100 25015G25KT P6SM BKN025 RMK NXT FCST BY 200600Z